createdAt,value
2022-12-07T00:00:45.792Z,20.43
2022-12-07T00:05:49.520Z,21.33
2022-12-07T00:10:52.564Z,20.40
2022-12-07T00:15:55.584Z,24.03
2022-12-07T00:21:08.242Z,24.47
2022-12-07T00:26:17.342Z,27.63
2022-12-07T00:31:23.045Z,28.23
2022-12-07T00:36:27.588Z,23.80
2022-12-07T00:41:31.573Z,22.50
2022-12-07T00:46:34.654Z,25.00
2022-12-07T00:51:38.013Z,29.30
2022-12-07T00:56:41.034Z,26.23
2022-12-07T01:01:44.224Z,26.60
2022-12-07T01:06:47.403Z,25.50
2022-12-07T01:11:50.463Z,24.23
2022-12-07T01:16:53.579Z,25.90
2022-12-07T01:21:56.610Z,27.20
2022-12-07T01:26:59.617Z,24.63
2022-12-07T01:32:02.640Z,25.43
2022-12-07T01:37:05.739Z,20.07
2022-12-07T01:42:12.093Z,24.77
2022-12-07T01:47:15.116Z,23.80
2022-12-07T01:52:24.253Z,21.73
2022-12-07T01:57:27.712Z,25.50
2022-12-07T02:02:37.806Z,26.53
2022-12-07T02:07:41.759Z,24.13
2022-12-07T02:12:47.847Z,22.20
2022-12-07T02:18:05.373Z,24.53
2022-12-07T02:23:17.639Z,22.50
2022-12-07T02:28:56.838Z,20.37
2022-12-07T02:34:16.093Z,22.53
2022-12-07T02:39:54.012Z,24.20
2022-12-07T02:44:57.193Z,26.07
2022-12-07T02:50:00.778Z,26.03
2022-12-07T02:55:05.125Z,20.40
2022-12-07T03:00:16.456Z,21.30
2022-12-07T03:05:42.452Z,26.40
2022-12-07T03:11:10.899Z,20.17
2022-12-07T03:16:34.757Z,21.23
2022-12-07T03:21:43.499Z,21.17
2022-12-07T03:26:51.031Z,20.03
2022-12-07T03:32:07.865Z,20.17
2022-12-07T03:37:27.569Z,20.23
2022-12-07T03:42:32.235Z,19.43
2022-12-07T03:47:57.483Z,17.83
2022-12-07T03:53:14.666Z,17.50
2022-12-07T03:58:23.383Z,17.03
2022-12-07T04:03:26.464Z,12.63
2022-12-07T04:08:29.677Z,12.60
2022-12-07T04:13:53.505Z,14.13
2022-12-07T04:18:56.714Z,15.17
2022-12-07T04:23:59.836Z,11.80
2022-12-07T04:29:07.461Z,14.00
2022-12-07T04:34:12.070Z,15.10
2022-12-07T04:39:27.082Z,15.03
2022-12-07T04:44:30.835Z,14.60
2022-12-07T04:49:34.148Z,15.73
2022-12-07T04:54:37.318Z,12.53
2022-12-07T04:59:45.368Z,13.33
2022-12-07T05:04:49.052Z,11.77
2022-12-07T05:09:54.996Z,13.30
2022-12-07T05:14:58.158Z,10.53
2022-12-07T05:20:01.614Z,10.13
2022-12-07T05:25:05.420Z,10.63
2022-12-07T05:30:09.236Z,9.00
2022-12-07T05:35:12.431Z,11.07
2022-12-07T05:40:16.248Z,8.83
2022-12-07T05:45:19.394Z,9.57
2022-12-07T05:50:22.625Z,11.00
2022-12-07T05:55:36.829Z,12.03
2022-12-07T06:00:39.970Z,12.83
2022-12-07T06:05:43.625Z,12.73
2022-12-07T06:10:48.008Z,11.30
2022-12-07T06:15:51.196Z,14.03
2022-12-07T06:20:54.292Z,12.27
2022-12-07T06:25:57.441Z,7.43
2022-12-07T06:31:01.566Z,13.87
2022-12-07T06:36:05.160Z,12.30
2022-12-07T06:41:08.420Z,13.77
2022-12-07T06:46:11.737Z,15.87
2022-12-07T06:51:14.953Z,15.57
2022-12-07T06:56:18.192Z,14.70
2022-12-07T07:01:21.324Z,18.83
2022-12-07T07:06:24.428Z,17.57
2022-12-07T07:11:27.663Z,16.93
2022-12-07T07:16:32.314Z,18.20
2022-12-07T07:21:35.659Z,15.40
2022-12-07T07:26:38.769Z,15.90
2022-12-07T07:31:41.856Z,19.47
2022-12-07T07:36:44.878Z,15.07
2022-12-07T07:41:48.533Z,13.90
2022-12-07T07:47:00.873Z,16.53
2022-12-07T07:52:04.152Z,18.40
2022-12-07T07:57:07.164Z,17.67
2022-12-07T08:02:19.893Z,16.73
2022-12-07T08:07:22.974Z,16.47
2022-12-07T08:12:26.142Z,16.73
2022-12-07T08:17:29.190Z,17.67
2022-12-07T08:22:32.109Z,17.67
2022-12-07T08:27:35.228Z,16.23
2022-12-07T08:32:38.377Z,18.13
2022-12-07T08:37:42.009Z,14.47
2022-12-07T08:42:45.978Z,16.40
2022-12-07T08:48:25.611Z,16.23
2022-12-07T08:53:29.121Z,15.63
2022-12-07T08:58:32.997Z,10.53
2022-12-07T09:03:36.139Z,14.60
2022-12-07T09:08:43.567Z,15.30
2022-12-07T09:13:46.655Z,18.60
2022-12-07T09:18:49.722Z,17.13
2022-12-07T09:23:52.785Z,14.50
2022-12-07T09:28:56.000Z,15.23
2022-12-07T09:34:02.415Z,12.93
2022-12-07T09:39:06.204Z,14.50
2022-12-07T09:44:18.515Z,14.03
2022-12-07T09:49:28.144Z,16.17
2022-12-07T09:54:32.838Z,10.47
2022-12-07T09:59:36.827Z,15.10
2022-12-07T10:04:40.264Z,16.43
2022-12-07T10:09:44.357Z,13.43
2022-12-07T10:15:18.718Z,13.60
2022-12-07T10:20:28.951Z,14.80
2022-12-07T10:25:34.927Z,14.30
2022-12-07T10:31:00.536Z,15.70
2022-12-07T10:36:18.740Z,13.07
2022-12-07T10:41:21.927Z,12.97
2022-12-07T10:46:36.200Z,13.03
2022-12-07T10:51:49.702Z,17.07
2022-12-07T10:57:29.133Z,10.70
2022-12-07T11:02:51.979Z,11.30
2022-12-07T11:08:05.476Z,18.13
2022-12-07T11:13:17.770Z,14.77
2022-12-07T11:18:29.154Z,11.80
2022-12-07T11:23:53.821Z,11.63
2022-12-07T11:29:09.096Z,10.30
2022-12-07T11:34:27.735Z,9.17
2022-12-07T11:39:49.459Z,9.63
2022-12-07T11:45:02.470Z,9.33
2022-12-07T11:50:31.141Z,7.90
2022-12-07T11:55:58.565Z,8.73
2022-12-07T12:01:23.716Z,8.13
2022-12-07T12:06:26.906Z,10.97
2022-12-07T12:11:45.891Z,13.53
2022-12-07T12:17:15.059Z,12.57
2022-12-07T12:22:22.418Z,5.43
2022-12-07T12:27:38.570Z,10.47
2022-12-07T12:32:44.146Z,8.23
2022-12-07T12:37:48.296Z,6.20
2022-12-07T12:42:59.204Z,6.80
2022-12-07T12:48:04.260Z,5.53
2022-12-07T12:53:27.060Z,7.27
2022-12-07T12:58:39.431Z,9.13
2022-12-07T13:03:55.086Z,6.63
2022-12-07T13:10:18.579Z,8.50
2022-12-07T13:15:40.447Z,8.97
2022-12-07T13:20:48.589Z,5.70
2022-12-07T13:26:01.148Z,6.50
2022-12-07T13:31:36.484Z,5.63
2022-12-07T13:36:41.011Z,8.77
2022-12-07T13:41:44.923Z,9.17
2022-12-07T13:47:00.796Z,9.03
2022-12-07T13:52:30.738Z,7.13
2022-12-07T13:57:36.423Z,6.50
2022-12-07T14:03:01.087Z,6.83
2022-12-07T14:08:31.256Z,6.80
2022-12-07T14:13:36.199Z,9.80
2022-12-07T14:18:41.835Z,7.00
2022-12-07T14:23:45.754Z,6.53
2022-12-07T14:28:49.292Z,5.87
2022-12-07T14:33:52.337Z,7.43
2022-12-07T14:38:57.436Z,7.70
2022-12-07T14:44:22.413Z,4.93
2022-12-07T14:49:39.612Z,4.27
2022-12-07T14:54:44.111Z,6.10
2022-12-07T14:59:47.174Z,3.90
2022-12-07T15:04:50.457Z,3.40
2022-12-07T15:09:53.525Z,5.20
2022-12-07T15:14:56.849Z,3.60
2022-12-07T15:20:00.220Z,3.97
2022-12-07T15:25:05.502Z,5.30
2022-12-07T15:30:09.686Z,4.47
2022-12-07T15:35:12.720Z,3.50
2022-12-07T15:40:15.953Z,4.03
2022-12-07T15:45:19.093Z,5.33
2022-12-07T15:50:22.513Z,5.10
2022-12-07T15:55:25.550Z,4.93
2022-12-07T16:00:28.719Z,6.27
2022-12-07T16:05:31.814Z,3.73
2022-12-07T16:10:35.755Z,3.43
2022-12-07T16:15:43.133Z,4.27
2022-12-07T16:20:50.397Z,4.93
2022-12-07T16:25:53.585Z,4.10
2022-12-07T16:31:08.322Z,2.93
2022-12-07T16:36:14.572Z,4.20
2022-12-07T16:41:17.685Z,5.93
2022-12-07T16:46:20.917Z,7.07
2022-12-07T16:51:23.958Z,6.17
2022-12-07T16:56:28.011Z,7.13
2022-12-07T17:01:32.052Z,4.63
2022-12-07T17:06:35.229Z,4.83
2022-12-07T17:11:38.325Z,9.70
2022-12-07T17:16:41.711Z,4.40
2022-12-07T17:21:45.796Z,7.50
2022-12-07T17:26:49.022Z,6.53
2022-12-07T17:31:52.329Z,6.40
2022-12-07T17:36:56.021Z,6.93
2022-12-07T17:42:17.322Z,6.87
2022-12-07T17:47:21.797Z,8.83
2022-12-07T17:52:43.054Z,9.30
2022-12-07T17:57:46.059Z,7.57
2022-12-07T18:02:49.339Z,4.80
2022-12-07T18:07:53.249Z,5.40
2022-12-07T18:13:16.456Z,5.10
2022-12-07T18:18:19.437Z,4.07
2022-12-07T18:23:22.533Z,7.20
2022-12-07T18:28:25.622Z,5.10
2022-12-07T18:33:28.732Z,6.80
2022-12-07T18:38:32.369Z,7.00
2022-12-07T18:43:35.423Z,6.43
2022-12-07T18:48:38.603Z,6.53
2022-12-07T18:53:41.849Z,4.47
2022-12-07T18:59:07.729Z,8.53
2022-12-07T19:04:11.353Z,8.23
2022-12-07T19:09:15.112Z,7.87
2022-12-07T19:14:20.292Z,11.87
2022-12-07T19:19:25.504Z,8.57
2022-12-07T19:24:29.768Z,8.03
2022-12-07T19:29:32.868Z,6.43
2022-12-07T19:34:37.073Z,7.13
2022-12-07T19:39:48.320Z,8.93
2022-12-07T19:44:51.508Z,8.57
2022-12-07T19:49:54.561Z,9.43
2022-12-07T19:54:57.706Z,8.00
2022-12-07T20:00:00.769Z,6.40
2022-12-07T20:05:06.323Z,6.20
2022-12-07T20:10:14.028Z,9.70
2022-12-07T20:15:17.413Z,8.40
2022-12-07T20:20:20.612Z,7.47
2022-12-07T20:25:23.717Z,5.83
2022-12-07T20:30:26.822Z,10.20
2022-12-07T20:35:30.645Z,6.47
2022-12-07T20:40:33.638Z,10.73
2022-12-07T20:45:36.716Z,6.63
2022-12-07T20:50:42.334Z,10.97
2022-12-07T20:55:46.039Z,7.77
2022-12-07T21:00:49.102Z,7.37
2022-12-07T21:05:52.103Z,7.33
2022-12-07T21:10:55.151Z,8.30
2022-12-07T21:15:59.684Z,7.37
2022-12-07T21:21:03.441Z,7.97
2022-12-07T21:26:11.707Z,10.87
2022-12-07T21:31:15.407Z,12.20
2022-12-07T21:36:21.518Z,8.73
2022-12-07T21:41:27.796Z,9.37
2022-12-07T21:46:34.186Z,14.40
2022-12-07T21:51:38.333Z,12.50
2022-12-07T21:56:43.056Z,11.10
2022-12-07T22:01:48.579Z,10.17
2022-12-07T22:06:53.180Z,11.03
2022-12-07T22:11:56.270Z,10.53
2022-12-07T22:16:59.457Z,9.73
2022-12-07T22:22:02.555Z,9.13
2022-12-07T22:27:05.567Z,14.27
2022-12-07T22:32:24.993Z,10.23
2022-12-07T22:37:32.584Z,11.77
2022-12-07T22:42:35.622Z,10.47
2022-12-07T22:47:40.814Z,13.80
2022-12-07T22:52:43.832Z,9.23
2022-12-07T22:57:46.852Z,13.40
2022-12-07T23:02:49.910Z,12.07
2022-12-07T23:07:53.319Z,15.07
2022-12-07T23:13:14.806Z,11.07
2022-12-07T23:18:20.994Z,11.53
2022-12-07T23:23:24.019Z,11.20
2022-12-07T23:28:27.089Z,10.10
2022-12-07T23:33:30.289Z,9.03
2022-12-07T23:38:33.307Z,11.57
2022-12-07T23:43:41.197Z,14.37
2022-12-07T23:48:45.262Z,13.57
2022-12-07T23:53:50.697Z,13.87
2022-12-07T23:58:54.797Z,16.23
